sensor_id;sensor_type;location;lat;lon;timestamp;temperature;humidity
23083;DHT22;11709;52.420;10.538;2023-04-24T00:01:53;14.40;99.90
23083;DHT22;11709;52.420;10.538;2023-04-24T00:05:55;14.40;99.90
23083;DHT22;11709;52.420;10.538;2023-04-24T00:09:57;14.40;99.90
23083;DHT22;11709;52.420;10.538;2023-04-24T00:13:59;14.30;99.90
23083;DHT22;11709;52.420;10.538;2023-04-24T00:18:01;14.30;99.90
23083;DHT22;11709;52.420;10.538;2023-04-24T00:22:03;14.30;99.90
23083;DHT22;11709;52.420;10.538;2023-04-24T00:26:05;14.30;99.90
23083;DHT22;11709;52.420;10.538;2023-04-24T00:30:06;14.20;99.90
23083;DHT22;11709;52.420;10.538;2023-04-24T00:34:08;14.20;99.90
23083;DHT22;11709;52.420;10.538;2023-04-24T00:38:11;14.10;99.90
23083;DHT22;11709;52.420;10.538;2023-04-24T00:42:13;14.00;99.90
23083;DHT22;11709;52.420;10.538;2023-04-24T00:46:15;14.00;99.90
23083;DHT22;11709;52.420;10.538;2023-04-24T00:50:17;13.90;99.90
23083;DHT22;11709;52.420;10.538;2023-04-24T00:54:20;13.90;99.90
23083;DHT22;11709;52.420;10.538;2023-04-24T00:58:22;13.80;99.90
23083;DHT22;11709;52.420;10.538;2023-04-24T01:02:24;13.80;99.90
23083;DHT22;11709;52.420;10.538;2023-04-24T01:06:30;13.70;99.90
23083;DHT22;11709;52.420;10.538;2023-04-24T01:10:29;13.70;99.90
23083;DHT22;11709;52.420;10.538;2023-04-24T01:14:33;13.50;99.90
23083;DHT22;11709;52.420;10.538;2023-04-24T01:18:35;13.50;99.90
23083;DHT22;11709;52.420;10.538;2023-04-24T01:22:37;13.40;99.90
23083;DHT22;11709;52.420;10.538;2023-04-24T01:26:39;13.30;99.90
23083;DHT22;11709;52.420;10.538;2023-04-24T01:30:41;13.20;99.90
23083;DHT22;11709;52.420;10.538;2023-04-24T01:34:43;13.10;99.90
23083;DHT22;11709;52.420;10.538;2023-04-24T01:38:45;13.10;99.90
23083;DHT22;11709;52.420;10.538;2023-04-24T01:42:47;13.00;99.90
23083;DHT22;11709;52.420;10.538;2023-04-24T01:46:49;12.90;99.90
23083;DHT22;11709;52.420;10.538;2023-04-24T01:50:51;12.90;99.90
23083;DHT22;11709;52.420;10.538;2023-04-24T01:54:52;12.80;99.90
23083;DHT22;11709;52.420;10.538;2023-04-24T01:58:56;12.80;99.90
23083;DHT22;11709;52.420;10.538;2023-04-24T02:02:58;12.50;99.90
23083;DHT22;11709;52.420;10.538;2023-04-24T02:07:02;12.70;99.90
23083;DHT22;11709;52.420;10.538;2023-04-24T02:11:04;12.70;99.90
23083;DHT22;11709;52.420;10.538;2023-04-24T02:15:06;12.70;99.90
23083;DHT22;11709;52.420;10.538;2023-04-24T02:19:08;12.60;99.90
23083;DHT22;11709;52.420;10.538;2023-04-24T02:23:10;12.60;99.90
23083;DHT22;11709;52.420;10.538;2023-04-24T02:27:12;12.60;99.90
23083;DHT22;11709;52.420;10.538;2023-04-24T02:31:14;12.50;99.90
23083;DHT22;11709;52.420;10.538;2023-04-24T02:35:16;12.50;99.90
23083;DHT22;11709;52.420;10.538;2023-04-24T02:39:18;12.50;99.90
23083;DHT22;11709;52.420;10.538;2023-04-24T02:43:20;12.40;99.90
23083;DHT22;11709;52.420;10.538;2023-04-24T02:47:22;12.30;99.90
23083;DHT22;11709;52.420;10.538;2023-04-24T02:51:24;12.30;99.90
23083;DHT22;11709;52.420;10.538;2023-04-24T02:55:25;12.20;99.90
23083;DHT22;11709;52.420;10.538;2023-04-24T02:59:27;12.20;99.90
23083;DHT22;11709;52.420;10.538;2023-04-24T03:03:29;12.20;99.90
23083;DHT22;11709;52.420;10.538;2023-04-24T03:07:31;12.10;99.90
23083;DHT22;11709;52.420;10.538;2023-04-24T03:11:33;12.00;99.90
23083;DHT22;11709;52.420;10.538;2023-04-24T03:15:35;12.00;99.90
23083;DHT22;11709;52.420;10.538;2023-04-24T03:19:36;12.00;99.90
23083;DHT22;11709;52.420;10.538;2023-04-24T03:23:38;11.90;99.90
23083;DHT22;11709;52.420;10.538;2023-04-24T03:27:40;11.80;99.90
23083;DHT22;11709;52.420;10.538;2023-04-24T03:31:42;11.80;99.90
23083;DHT22;11709;52.420;10.538;2023-04-24T03:35:44;11.70;99.90
23083;DHT22;11709;52.420;10.538;2023-04-24T03:39:46;11.70;99.90
23083;DHT22;11709;52.420;10.538;2023-04-24T03:43:47;11.70;99.90
23083;DHT22;11709;52.420;10.538;2023-04-24T03:47:49;11.60;99.90
23083;DHT22;11709;52.420;10.538;2023-04-24T03:51:51;11.60;99.90
23083;DHT22;11709;52.420;10.538;2023-04-24T03:55:53;11.60;99.90
23083;DHT22;11709;52.420;10.538;2023-04-24T03:59:55;11.50;99.90
23083;DHT22;11709;52.420;10.538;2023-04-24T04:03:57;11.50;99.90
23083;DHT22;11709;52.420;10.538;2023-04-24T04:07:59;11.40;99.90
23083;DHT22;11709;52.420;10.538;2023-04-24T04:12:01;11.40;99.90
23083;DHT22;11709;52.420;10.538;2023-04-24T04:16:03;11.40;99.90
23083;DHT22;11709;52.420;10.538;2023-04-24T04:20:05;11.30;99.90
23083;DHT22;11709;52.420;10.538;2023-04-24T04:24:11;10.70;99.90
23083;DHT22;11709;52.420;10.538;2023-04-24T04:28:13;11.20;99.90
23083;DHT22;11709;52.420;10.538;2023-04-24T04:32:16;11.30;99.90
23083;DHT22;11709;52.420;10.538;2023-04-24T04:36:17;11.30;99.90
23083;DHT22;11709;52.420;10.538;2023-04-24T04:40:19;11.20;99.90
23083;DHT22;11709;52.420;10.538;2023-04-24T04:44:21;11.20;99.90
23083;DHT22;11709;52.420;10.538;2023-04-24T04:48:24;11.10;99.90
23083;DHT22;11709;52.420;10.538;2023-04-24T04:52:26;11.20;99.90
23083;DHT22;11709;52.420;10.538;2023-04-24T04:56:27;11.10;99.90
23083;DHT22;11709;52.420;10.538;2023-04-24T05:00:29;11.10;99.90
23083;DHT22;11709;52.420;10.538;2023-04-24T05:04:33;11.20;99.90
23083;DHT22;11709;52.420;10.538;2023-04-24T05:08:35;11.20;99.90
23083;DHT22;11709;52.420;10.538;2023-04-24T05:12:36;11.20;99.90
23083;DHT22;11709;52.420;10.538;2023-04-24T05:16:38;11.20;99.90
23083;DHT22;11709;52.420;10.538;2023-04-24T05:20:41;11.30;99.90
23083;DHT22;11709;52.420;10.538;2023-04-24T05:24:44;11.30;99.90
23083;DHT22;11709;52.420;10.538;2023-04-24T05:28:46;11.40;99.90
23083;DHT22;11709;52.420;10.538;2023-04-24T05:32:48;11.40;99.90
23083;DHT22;11709;52.420;10.538;2023-04-24T05:36:50;11.50;99.90
23083;DHT22;11709;52.420;10.538;2023-04-24T05:40:52;11.60;99.90
23083;DHT22;11709;52.420;10.538;2023-04-24T05:44:54;11.70;99.90
23083;DHT22;11709;52.420;10.538;2023-04-24T05:48:55;11.70;99.90
23083;DHT22;11709;52.420;10.538;2023-04-24T05:52:57;11.80;99.90
23083;DHT22;11709;52.420;10.538;2023-04-24T05:56:59;11.90;99.90
23083;DHT22;11709;52.420;10.538;2023-04-24T06:01:03;12.00;99.90
23083;DHT22;11709;52.420;10.538;2023-04-24T06:05:04;12.10;99.90
23083;DHT22;11709;52.420;10.538;2023-04-24T06:09:06;12.20;99.90
23083;DHT22;11709;52.420;10.538;2023-04-24T06:13:08;12.30;99.90
23083;DHT22;11709;52.420;10.538;2023-04-24T06:17:10;12.40;99.90
23083;DHT22;11709;52.420;10.538;2023-04-24T06:21:12;12.40;99.90
23083;DHT22;11709;52.420;10.538;2023-04-24T06:25:14;12.50;99.90
23083;DHT22;11709;52.420;10.538;2023-04-24T06:29:16;12.50;99.90
23083;DHT22;11709;52.420;10.538;2023-04-24T06:33:18;12.50;99.90
23083;DHT22;11709;52.420;10.538;2023-04-24T06:37:20;12.60;99.90
23083;DHT22;11709;52.420;10.538;2023-04-24T06:41:22;12.60;99.90
23083;DHT22;11709;52.420;10.538;2023-04-24T06:45:24;12.60;99.90
23083;DHT22;11709;52.420;10.538;2023-04-24T06:49:26;12.70;99.90
23083;DHT22;11709;52.420;10.538;2023-04-24T06:53:28;12.70;99.90
23083;DHT22;11709;52.420;10.538;2023-04-24T06:57:30;12.70;99.90
23083;DHT22;11709;52.420;10.538;2023-04-24T07:01:31;12.80;99.90
23083;DHT22;11709;52.420;10.538;2023-04-24T07:05:33;12.80;99.90
23083;DHT22;11709;52.420;10.538;2023-04-24T07:09:36;12.80;99.90
23083;DHT22;11709;52.420;10.538;2023-04-24T07:13:39;12.80;99.90
23083;DHT22;11709;52.420;10.538;2023-04-24T07:17:42;12.90;99.90
23083;DHT22;11709;52.420;10.538;2023-04-24T07:21:45;13.00;99.90
23083;DHT22;11709;52.420;10.538;2023-04-24T07:25:46;13.00;99.90
23083;DHT22;11709;52.420;10.538;2023-04-24T07:29:48;13.10;99.90
23083;DHT22;11709;52.420;10.538;2023-04-24T07:33:50;13.30;99.90
23083;DHT22;11709;52.420;10.538;2023-04-24T07:37:52;13.50;99.90
23083;DHT22;11709;52.420;10.538;2023-04-24T07:41:54;13.40;99.90
23083;DHT22;11709;52.420;10.538;2023-04-24T07:45:56;12.90;99.90
23083;DHT22;11709;52.420;10.538;2023-04-24T07:49:58;12.40;99.90
23083;DHT22;11709;52.420;10.538;2023-04-24T07:54:00;12.20;99.90
23083;DHT22;11709;52.420;10.538;2023-04-24T07:58:02;12.10;99.90
23083;DHT22;11709;52.420;10.538;2023-04-24T08:02:04;12.00;99.90
23083;DHT22;11709;52.420;10.538;2023-04-24T08:06:06;11.90;99.90
23083;DHT22;11709;52.420;10.538;2023-04-24T08:10:09;11.80;99.90
23083;DHT22;11709;52.420;10.538;2023-04-24T08:14:12;11.90;99.90
23083;DHT22;11709;52.420;10.538;2023-04-24T08:18:14;11.90;99.90
23083;DHT22;11709;52.420;10.538;2023-04-24T08:22:16;12.00;99.90
23083;DHT22;11709;52.420;10.538;2023-04-24T08:26:18;12.00;99.90
23083;DHT22;11709;52.420;10.538;2023-04-24T08:30:20;12.10;99.90
23083;DHT22;11709;52.420;10.538;2023-04-24T08:34:22;12.20;99.90
23083;DHT22;11709;52.420;10.538;2023-04-24T08:38:24;12.30;99.90
23083;DHT22;11709;52.420;10.538;2023-04-24T08:42:26;12.40;99.90
23083;DHT22;11709;52.420;10.538;2023-04-24T08:46:30;12.60;99.90
23083;DHT22;11709;52.420;10.538;2023-04-24T08:50:32;12.70;99.90
23083;DHT22;11709;52.420;10.538;2023-04-24T08:54:35;12.80;99.90
23083;DHT22;11709;52.420;10.538;2023-04-24T08:58:37;13.00;99.90
23083;DHT22;11709;52.420;10.538;2023-04-24T09:02:42;13.20;99.90
23083;DHT22;11709;52.420;10.538;2023-04-24T09:06:44;13.40;99.90
23083;DHT22;11709;52.420;10.538;2023-04-24T09:10:46;13.50;99.90
23083;DHT22;11709;52.420;10.538;2023-04-24T09:14:48;13.50;99.90
23083;DHT22;11709;52.420;10.538;2023-04-24T09:18:51;13.60;99.90
23083;DHT22;11709;52.420;10.538;2023-04-24T09:23:00;13.80;99.90
23083;DHT22;11709;52.420;10.538;2023-04-24T09:26:59;14.00;99.90
23083;DHT22;11709;52.420;10.538;2023-04-24T09:31:06;14.60;99.90
23083;DHT22;11709;52.420;10.538;2023-04-24T09:35:15;14.90;99.90
23083;DHT22;11709;52.420;10.538;2023-04-24T09:39:13;15.20;99.90
23083;DHT22;11709;52.420;10.538;2023-04-24T09:43:17;15.40;99.90
23083;DHT22;11709;52.420;10.538;2023-04-24T09:47:19;15.90;99.90
23083;DHT22;11709;52.420;10.538;2023-04-24T09:51:33;15.80;99.90
23083;DHT22;11709;52.420;10.538;2023-04-24T09:55:24;15.50;99.90
23083;DHT22;11709;52.420;10.538;2023-04-24T09:59:27;15.70;99.90
23083;DHT22;11709;52.420;10.538;2023-04-24T10:03:32;16.10;99.90
23083;DHT22;11709;52.420;10.538;2023-04-24T10:07:34;15.90;99.90
23083;DHT22;11709;52.420;10.538;2023-04-24T10:11:36;15.50;99.90
23083;DHT22;11709;52.420;10.538;2023-04-24T10:15:39;15.10;99.90
23083;DHT22;11709;52.420;10.538;2023-04-24T10:19:41;14.90;99.90
23083;DHT22;11709;52.420;10.538;2023-04-24T10:23:44;14.90;99.90
23083;DHT22;11709;52.420;10.538;2023-04-24T10:27:47;14.90;99.90
23083;DHT22;11709;52.420;10.538;2023-04-24T10:31:49;14.50;99.90
23083;DHT22;11709;52.420;10.538;2023-04-24T10:35:51;14.30;99.90
23083;DHT22;11709;52.420;10.538;2023-04-24T10:39:53;14.30;99.90
23083;DHT22;11709;52.420;10.538;2023-04-24T10:44:05;14.50;99.90
23083;DHT22;11709;52.420;10.538;2023-04-24T10:48:08;15.00;99.90
23083;DHT22;11709;52.420;10.538;2023-04-24T10:52:14;14.90;99.90
23083;DHT22;11709;52.420;10.538;2023-04-24T10:56:17;14.70;99.90
23083;DHT22;11709;52.420;10.538;2023-04-24T11:00:19;14.60;99.90
23083;DHT22;11709;52.420;10.538;2023-04-24T11:04:31;14.50;99.90
23083;DHT22;11709;52.420;10.538;2023-04-24T11:08:37;14.30;99.90
23083;DHT22;11709;52.420;10.538;2023-04-24T11:12:40;14.10;99.90
23083;DHT22;11709;52.420;10.538;2023-04-24T11:16:46;14.20;99.90
23083;DHT22;11709;52.420;10.538;2023-04-24T11:20:48;14.20;99.90
23083;DHT22;11709;52.420;10.538;2023-04-24T11:24:50;14.30;99.90
23083;DHT22;11709;52.420;10.538;2023-04-24T11:28:54;14.40;99.90
23083;DHT22;11709;52.420;10.538;2023-04-24T11:33:02;14.40;99.90
23083;DHT22;11709;52.420;10.538;2023-04-24T11:37:01;14.40;99.90
23083;DHT22;11709;52.420;10.538;2023-04-24T11:41:05;14.20;99.90
23083;DHT22;11709;52.420;10.538;2023-04-24T11:45:08;14.20;99.90
23083;DHT22;11709;52.420;10.538;2023-04-24T11:49:12;14.30;99.90
23083;DHT22;11709;52.420;10.538;2023-04-24T11:53:14;14.30;99.90
23083;DHT22;11709;52.420;10.538;2023-04-24T11:57:20;14.10;99.90
23083;DHT22;11709;52.420;10.538;2023-04-24T12:01:22;13.90;99.90
23083;DHT22;11709;52.420;10.538;2023-04-24T12:05:25;13.90;99.90
23083;DHT22;11709;52.420;10.538;2023-04-24T12:09:27;13.70;99.90
23083;DHT22;11709;52.420;10.538;2023-04-24T12:13:29;13.60;99.90
23083;DHT22;11709;52.420;10.538;2023-04-24T12:17:32;13.60;99.90
23083;DHT22;11709;52.420;10.538;2023-04-24T12:21:34;13.70;99.90
23083;DHT22;11709;52.420;10.538;2023-04-24T12:25:35;13.70;99.90
23083;DHT22;11709;52.420;10.538;2023-04-24T12:29:51;13.70;99.90
23083;DHT22;11709;52.420;10.538;2023-04-24T12:33:41;13.70;99.90
23083;DHT22;11709;52.420;10.538;2023-04-24T12:37:43;13.90;99.90
23083;DHT22;11709;52.420;10.538;2023-04-24T12:41:57;14.20;99.90
23083;DHT22;11709;52.420;10.538;2023-04-24T12:46:00;14.00;99.90
23083;DHT22;11709;52.420;10.538;2023-04-24T12:50:03;13.70;99.90
23083;DHT22;11709;52.420;10.538;2023-04-24T12:54:05;13.50;99.90
23083;DHT22;11709;52.420;10.538;2023-04-24T12:58:07;13.50;99.90
23083;DHT22;11709;52.420;10.538;2023-04-24T13:02:09;13.50;99.90
23083;DHT22;11709;52.420;10.538;2023-04-24T13:06:12;13.60;99.90
23083;DHT22;11709;52.420;10.538;2023-04-24T13:10:14;13.70;99.90
23083;DHT22;11709;52.420;10.538;2023-04-24T13:14:18;13.70;99.90
23083;DHT22;11709;52.420;10.538;2023-04-24T13:18:20;13.60;99.90
23083;DHT22;11709;52.420;10.538;2023-04-24T13:22:22;13.50;99.90
23083;DHT22;11709;52.420;10.538;2023-04-24T13:26:24;13.50;99.90
23083;DHT22;11709;52.420;10.538;2023-04-24T13:30:26;13.50;99.90
23083;DHT22;11709;52.420;10.538;2023-04-24T13:34:29;13.60;99.90
23083;DHT22;11709;52.420;10.538;2023-04-24T13:38:30;14.50;99.90
23083;DHT22;11709;52.420;10.538;2023-04-24T13:42:33;15.00;99.90
23083;DHT22;11709;52.420;10.538;2023-04-24T13:46:36;15.30;99.90
23083;DHT22;11709;52.420;10.538;2023-04-24T13:50:38;15.80;99.90
23083;DHT22;11709;52.420;10.538;2023-04-24T13:54:41;16.00;99.90
23083;DHT22;11709;52.420;10.538;2023-04-24T13:58:42;15.60;99.90
23083;DHT22;11709;52.420;10.538;2023-04-24T14:02:44;14.80;99.90
23083;DHT22;11709;52.420;10.538;2023-04-24T14:06:47;14.50;99.90
23083;DHT22;11709;52.420;10.538;2023-04-24T14:10:49;13.70;99.90
23083;DHT22;11709;52.420;10.538;2023-04-24T14:14:51;13.10;99.90
23083;DHT22;11709;52.420;10.538;2023-04-24T14:18:53;12.90;99.90
23083;DHT22;11709;52.420;10.538;2023-04-24T14:22:55;12.70;99.90
23083;DHT22;11709;52.420;10.538;2023-04-24T14:26:59;12.50;99.90
23083;DHT22;11709;52.420;10.538;2023-04-24T14:31:01;12.20;99.90
23083;DHT22;11709;52.420;10.538;2023-04-24T14:35:03;11.90;99.90
23083;DHT22;11709;52.420;10.538;2023-04-24T14:39:05;11.80;99.90
23083;DHT22;11709;52.420;10.538;2023-04-24T14:43:07;11.80;99.90
23083;DHT22;11709;52.420;10.538;2023-04-24T14:47:09;11.70;99.90
23083;DHT22;11709;52.420;10.538;2023-04-24T14:51:11;11.30;99.90
23083;DHT22;11709;52.420;10.538;2023-04-24T14:55:13;11.00;99.90
23083;DHT22;11709;52.420;10.538;2023-04-24T14:59:15;10.70;99.90
23083;DHT22;11709;52.420;10.538;2023-04-24T15:03:18;10.60;99.90
23083;DHT22;11709;52.420;10.538;2023-04-24T15:07:19;10.50;99.90
23083;DHT22;11709;52.420;10.538;2023-04-24T15:11:21;10.50;99.90
23083;DHT22;11709;52.420;10.538;2023-04-24T15:15:23;10.20;99.90
23083;DHT22;11709;52.420;10.538;2023-04-24T15:19:25;10.30;99.90
23083;DHT22;11709;52.420;10.538;2023-04-24T15:23:27;10.40;99.90
23083;DHT22;11709;52.420;10.538;2023-04-24T15:27:38;10.20;99.90
23083;DHT22;11709;52.420;10.538;2023-04-24T15:31:32;10.00;99.90
23083;DHT22;11709;52.420;10.538;2023-04-24T15:35:34;9.90;99.90
23083;DHT22;11709;52.420;10.538;2023-04-24T15:39:35;9.80;99.90
23083;DHT22;11709;52.420;10.538;2023-04-24T15:43:38;9.90;99.90
23083;DHT22;11709;52.420;10.538;2023-04-24T15:47:41;9.90;99.90
23083;DHT22;11709;52.420;10.538;2023-04-24T15:51:43;9.90;99.90
23083;DHT22;11709;52.420;10.538;2023-04-24T15:55:45;10.00;99.90
23083;DHT22;11709;52.420;10.538;2023-04-24T15:59:47;9.90;99.90
23083;DHT22;11709;52.420;10.538;2023-04-24T16:03:48;10.00;99.90
23083;DHT22;11709;52.420;10.538;2023-04-24T16:07:50;9.90;99.90
23083;DHT22;11709;52.420;10.538;2023-04-24T16:11:52;9.90;99.90
23083;DHT22;11709;52.420;10.538;2023-04-24T16:15:54;10.00;99.90
23083;DHT22;11709;52.420;10.538;2023-04-24T16:19:56;10.10;99.90
23083;DHT22;11709;52.420;10.538;2023-04-24T16:23:57;10.10;99.90
23083;DHT22;11709;52.420;10.538;2023-04-24T16:27:59;10.00;99.90
23083;DHT22;11709;52.420;10.538;2023-04-24T16:32:01;10.10;99.90
23083;DHT22;11709;52.420;10.538;2023-04-24T16:36:03;10.10;99.90
23083;DHT22;11709;52.420;10.538;2023-04-24T16:40:05;10.00;99.90
23083;DHT22;11709;52.420;10.538;2023-04-24T16:44:09;10.00;99.90
23083;DHT22;11709;52.420;10.538;2023-04-24T16:48:10;10.00;99.90
23083;DHT22;11709;52.420;10.538;2023-04-24T16:52:12;10.10;99.90
23083;DHT22;11709;52.420;10.538;2023-04-24T16:56:14;10.10;99.90
23083;DHT22;11709;52.420;10.538;2023-04-24T17:00:16;9.90;99.90
23083;DHT22;11709;52.420;10.538;2023-04-24T17:04:18;10.00;99.90
23083;DHT22;11709;52.420;10.538;2023-04-24T17:08:20;10.10;99.90
23083;DHT22;11709;52.420;10.538;2023-04-24T17:12:23;10.00;99.90
23083;DHT22;11709;52.420;10.538;2023-04-24T17:16:25;10.10;99.90
23083;DHT22;11709;52.420;10.538;2023-04-24T17:20:27;10.10;99.90
23083;DHT22;11709;52.420;10.538;2023-04-24T17:24:29;10.10;99.90
23083;DHT22;11709;52.420;10.538;2023-04-24T17:28:31;10.10;99.90
23083;DHT22;11709;52.420;10.538;2023-04-24T17:32:33;10.00;99.90
23083;DHT22;11709;52.420;10.538;2023-04-24T17:36:35;10.00;99.90
23083;DHT22;11709;52.420;10.538;2023-04-24T17:40:38;10.00;99.90
23083;DHT22;11709;52.420;10.538;2023-04-24T17:44:40;9.90;99.90
23083;DHT22;11709;52.420;10.538;2023-04-24T17:48:41;9.80;99.90
23083;DHT22;11709;52.420;10.538;2023-04-24T17:52:43;9.80;99.90
23083;DHT22;11709;52.420;10.538;2023-04-24T17:56:45;10.10;99.90
23083;DHT22;11709;52.420;10.538;2023-04-24T18:00:47;9.60;99.90
23083;DHT22;11709;52.420;10.538;2023-04-24T18:04:49;9.70;99.90
23083;DHT22;11709;52.420;10.538;2023-04-24T18:08:50;9.70;99.90
23083;DHT22;11709;52.420;10.538;2023-04-24T18:12:52;9.70;99.90
23083;DHT22;11709;52.420;10.538;2023-04-24T18:16:54;9.70;99.90
23083;DHT22;11709;52.420;10.538;2023-04-24T18:20:56;9.70;99.90
23083;DHT22;11709;52.420;10.538;2023-04-24T18:24:58;9.70;99.90
23083;DHT22;11709;52.420;10.538;2023-04-24T18:28:59;9.60;99.90
23083;DHT22;11709;52.420;10.538;2023-04-24T18:33:01;9.60;99.90
23083;DHT22;11709;52.420;10.538;2023-04-24T18:37:03;9.60;99.90
23083;DHT22;11709;52.420;10.538;2023-04-24T18:41:05;9.60;99.90
23083;DHT22;11709;52.420;10.538;2023-04-24T18:45:07;9.50;99.90
23083;DHT22;11709;52.420;10.538;2023-04-24T18:49:09;9.40;99.90
23083;DHT22;11709;52.420;10.538;2023-04-24T18:53:11;9.50;99.90
23083;DHT22;11709;52.420;10.538;2023-04-24T18:57:14;9.50;99.90
23083;DHT22;11709;52.420;10.538;2023-04-24T19:01:16;9.50;99.90
23083;DHT22;11709;52.420;10.538;2023-04-24T19:05:18;9.50;99.90
23083;DHT22;11709;52.420;10.538;2023-04-24T19:09:20;9.50;99.90
23083;DHT22;11709;52.420;10.538;2023-04-24T19:13:21;9.50;99.90
23083;DHT22;11709;52.420;10.538;2023-04-24T19:17:23;9.40;99.90
23083;DHT22;11709;52.420;10.538;2023-04-24T19:21:26;9.30;99.90
23083;DHT22;11709;52.420;10.538;2023-04-24T19:25:28;9.30;99.90
23083;DHT22;11709;52.420;10.538;2023-04-24T19:29:29;9.10;99.90
23083;DHT22;11709;52.420;10.538;2023-04-24T19:33:31;9.10;99.90
23083;DHT22;11709;52.420;10.538;2023-04-24T19:37:33;9.00;99.90
23083;DHT22;11709;52.420;10.538;2023-04-24T19:41:35;9.00;99.90
23083;DHT22;11709;52.420;10.538;2023-04-24T19:45:38;9.00;99.90
23083;DHT22;11709;52.420;10.538;2023-04-24T19:49:40;9.00;99.90
23083;DHT22;11709;52.420;10.538;2023-04-24T19:53:42;9.00;99.90
23083;DHT22;11709;52.420;10.538;2023-04-24T19:57:44;8.90;99.90
23083;DHT22;11709;52.420;10.538;2023-04-24T20:01:46;8.90;99.90
23083;DHT22;11709;52.420;10.538;2023-04-24T20:05:48;8.90;99.90
23083;DHT22;11709;52.420;10.538;2023-04-24T20:09:50;8.90;99.90
23083;DHT22;11709;52.420;10.538;2023-04-24T20:13:52;8.90;99.90
23083;DHT22;11709;52.420;10.538;2023-04-24T20:17:53;8.90;99.90
23083;DHT22;11709;52.420;10.538;2023-04-24T20:21:55;8.80;99.90
23083;DHT22;11709;52.420;10.538;2023-04-24T20:25:57;8.80;99.90
23083;DHT22;11709;52.420;10.538;2023-04-24T20:29:59;8.70;99.90
23083;DHT22;11709;52.420;10.538;2023-04-24T20:34:01;8.70;99.90
23083;DHT22;11709;52.420;10.538;2023-04-24T20:38:03;8.60;99.90
23083;DHT22;11709;52.420;10.538;2023-04-24T20:42:05;8.50;99.90
23083;DHT22;11709;52.420;10.538;2023-04-24T20:46:07;8.50;99.90
23083;DHT22;11709;52.420;10.538;2023-04-24T20:50:09;8.50;99.90
23083;DHT22;11709;52.420;10.538;2023-04-24T20:54:11;8.50;99.90
23083;DHT22;11709;52.420;10.538;2023-04-24T20:58:14;8.50;99.90
23083;DHT22;11709;52.420;10.538;2023-04-24T21:02:16;8.40;99.90
23083;DHT22;11709;52.420;10.538;2023-04-24T21:06:17;8.40;99.90
23083;DHT22;11709;52.420;10.538;2023-04-24T21:10:19;8.40;99.90
23083;DHT22;11709;52.420;10.538;2023-04-24T21:14:21;8.30;99.90
23083;DHT22;11709;52.420;10.538;2023-04-24T21:18:23;8.30;99.90
23083;DHT22;11709;52.420;10.538;2023-04-24T21:22:26;8.30;99.90
23083;DHT22;11709;52.420;10.538;2023-04-24T21:26:27;8.30;99.90
23083;DHT22;11709;52.420;10.538;2023-04-24T21:30:29;8.20;99.90
23083;DHT22;11709;52.420;10.538;2023-04-24T21:34:31;8.10;99.90
23083;DHT22;11709;52.420;10.538;2023-04-24T21:38:33;8.10;99.90
23083;DHT22;11709;52.420;10.538;2023-04-24T21:42:35;8.10;99.90
23083;DHT22;11709;52.420;10.538;2023-04-24T21:46:36;8.10;99.90
23083;DHT22;11709;52.420;10.538;2023-04-24T21:50:39;8.10;99.90
23083;DHT22;11709;52.420;10.538;2023-04-24T21:54:41;8.20;99.90
23083;DHT22;11709;52.420;10.538;2023-04-24T21:58:43;8.30;99.90
23083;DHT22;11709;52.420;10.538;2023-04-24T22:02:45;8.30;99.90
23083;DHT22;11709;52.420;10.538;2023-04-24T22:06:47;8.40;99.90
23083;DHT22;11709;52.420;10.538;2023-04-24T22:10:50;8.40;99.90
23083;DHT22;11709;52.420;10.538;2023-04-24T22:14:52;8.40;99.90
23083;DHT22;11709;52.420;10.538;2023-04-24T22:18:54;8.40;99.90
23083;DHT22;11709;52.420;10.538;2023-04-24T22:22:56;8.50;99.90
23083;DHT22;11709;52.420;10.538;2023-04-24T22:26:57;8.50;99.90
23083;DHT22;11709;52.420;10.538;2023-04-24T22:30:59;8.50;99.90
23083;DHT22;11709;52.420;10.538;2023-04-24T22:35:01;8.50;99.90
23083;DHT22;11709;52.420;10.538;2023-04-24T22:39:04;8.50;99.90
23083;DHT22;11709;52.420;10.538;2023-04-24T22:43:05;8.50;99.90
23083;DHT22;11709;52.420;10.538;2023-04-24T22:47:07;8.50;99.90
23083;DHT22;11709;52.420;10.538;2023-04-24T22:51:09;8.40;99.90
23083;DHT22;11709;52.420;10.538;2023-04-24T22:55:11;8.40;99.90
23083;DHT22;11709;52.420;10.538;2023-04-24T22:59:13;8.40;99.90
23083;DHT22;11709;52.420;10.538;2023-04-24T23:03:14;8.40;99.90
23083;DHT22;11709;52.420;10.538;2023-04-24T23:07:16;8.40;99.90
23083;DHT22;11709;52.420;10.538;2023-04-24T23:11:18;8.40;99.90
23083;DHT22;11709;52.420;10.538;2023-04-24T23:15:21;8.40;99.90
23083;DHT22;11709;52.420;10.538;2023-04-24T23:19:23;8.40;99.90
23083;DHT22;11709;52.420;10.538;2023-04-24T23:23:25;8.40;99.90
23083;DHT22;11709;52.420;10.538;2023-04-24T23:27:27;8.40;99.90
23083;DHT22;11709;52.420;10.538;2023-04-24T23:31:29;8.30;99.90
23083;DHT22;11709;52.420;10.538;2023-04-24T23:35:31;8.40;99.90
23083;DHT22;11709;52.420;10.538;2023-04-24T23:39:33;8.30;99.90
23083;DHT22;11709;52.420;10.538;2023-04-24T23:43:35;8.40;99.90
23083;DHT22;11709;52.420;10.538;2023-04-24T23:47:36;8.30;99.90
23083;DHT22;11709;52.420;10.538;2023-04-24T23:51:38;8.30;99.90
23083;DHT22;11709;52.420;10.538;2023-04-24T23:55:40;8.30;99.90
23083;DHT22;11709;52.420;10.538;2023-04-24T23:59:42;8.20;99.90
